sensor_id;sensor_type;location;lat;lon;timestamp;P1;durP1;ratioP1;P2;durP2;ratioP2
52964;SDS011;42923;53.220;6.528;2022-11-15T00:01:50;21.88;;;12.93;;
52964;SDS011;42923;53.220;6.528;2022-11-15T00:04:34;20.75;;;12.07;;
52964;SDS011;42923;53.220;6.528;2022-11-15T00:07:18;18.90;;;11.32;;
52964;SDS011;42923;53.220;6.528;2022-11-15T00:10:03;18.33;;;12.50;;
52964;SDS011;42923;53.220;6.528;2022-11-15T00:12:47;20.47;;;10.63;;
52964;SDS011;42923;53.220;6.528;2022-11-15T00:15:33;20.42;;;12.10;;
52964;SDS011;42923;53.220;6.528;2022-11-15T00:18:21;17.98;;;12.00;;
52964;SDS011;42923;53.220;6.528;2022-11-15T00:21:10;19.15;;;12.20;;
52964;SDS011;42923;53.220;6.528;2022-11-15T00:23:55;18.33;;;11.40;;
52964;SDS011;42923;53.220;6.528;2022-11-15T00:26:39;18.23;;;11.90;;
52964;SDS011;42923;53.220;6.528;2022-11-15T00:29:23;20.80;;;11.50;;
52964;SDS011;42923;53.220;6.528;2022-11-15T00:32:08;19.65;;;12.82;;
52964;SDS011;42923;53.220;6.528;2022-11-15T00:34:53;18.02;;;10.73;;
52964;SDS011;42923;53.220;6.528;2022-11-15T00:37:37;18.92;;;12.13;;
52964;SDS011;42923;53.220;6.528;2022-11-15T00:40:22;18.52;;;11.38;;
52964;SDS011;42923;53.220;6.528;2022-11-15T00:43:06;21.10;;;12.63;;
52964;SDS011;42923;53.220;6.528;2022-11-15T00:45:50;18.48;;;11.27;;
52964;SDS011;42923;53.220;6.528;2022-11-15T00:48:35;19.55;;;11.98;;
52964;SDS011;42923;53.220;6.528;2022-11-15T00:51:20;19.80;;;11.07;;
52964;SDS011;42923;53.220;6.528;2022-11-15T00:54:04;18.83;;;11.90;;
52964;SDS011;42923;53.220;6.528;2022-11-15T00:56:48;21.38;;;12.90;;
52964;SDS011;42923;53.220;6.528;2022-11-15T00:59:32;17.67;;;10.82;;
52964;SDS011;42923;53.220;6.528;2022-11-15T01:02:17;18.77;;;12.35;;
52964;SDS011;42923;53.220;6.528;2022-11-15T01:05:01;24.63;;;11.30;;
52964;SDS011;42923;53.220;6.528;2022-11-15T01:07:46;18.33;;;11.83;;
52964;SDS011;42923;53.220;6.528;2022-11-15T01:10:30;18.10;;;12.02;;
52964;SDS011;42923;53.220;6.528;2022-11-15T01:13:14;18.35;;;11.65;;
52964;SDS011;42923;53.220;6.528;2022-11-15T01:15:59;18.48;;;10.82;;
52964;SDS011;42923;53.220;6.528;2022-11-15T01:18:50;16.15;;;8.80;;
52964;SDS011;42923;53.220;6.528;2022-11-15T01:21:34;13.02;;;7.95;;
52964;SDS011;42923;53.220;6.528;2022-11-15T01:24:18;17.42;;;10.20;;
52964;SDS011;42923;53.220;6.528;2022-11-15T01:27:02;15.90;;;10.48;;
52964;SDS011;42923;53.220;6.528;2022-11-15T01:29:47;14.55;;;9.85;;
52964;SDS011;42923;53.220;6.528;2022-11-15T01:32:31;14.38;;;8.68;;
52964;SDS011;42923;53.220;6.528;2022-11-15T01:35:15;17.20;;;9.93;;
52964;SDS011;42923;53.220;6.528;2022-11-15T01:37:59;16.23;;;10.13;;
52964;SDS011;42923;53.220;6.528;2022-11-15T01:40:43;16.40;;;10.93;;
52964;SDS011;42923;53.220;6.528;2022-11-15T01:43:32;16.08;;;11.23;;
52964;SDS011;42923;53.220;6.528;2022-11-15T01:46:18;19.03;;;12.30;;
52964;SDS011;42923;53.220;6.528;2022-11-15T01:49:05;19.52;;;12.50;;
52964;SDS011;42923;53.220;6.528;2022-11-15T01:51:58;15.07;;;9.07;;
52964;SDS011;42923;53.220;6.528;2022-11-15T01:54:44;16.48;;;9.45;;
52964;SDS011;42923;53.220;6.528;2022-11-15T01:57:29;18.23;;;9.18;;
52964;SDS011;42923;53.220;6.528;2022-11-15T02:00:13;19.42;;;10.50;;
52964;SDS011;42923;53.220;6.528;2022-11-15T02:02:58;19.27;;;10.65;;
52964;SDS011;42923;53.220;6.528;2022-11-15T02:05:43;20.52;;;12.57;;
52964;SDS011;42923;53.220;6.528;2022-11-15T02:08:28;18.50;;;11.02;;
52964;SDS011;42923;53.220;6.528;2022-11-15T02:11:12;19.52;;;10.77;;
52964;SDS011;42923;53.220;6.528;2022-11-15T02:13:57;12.82;;;8.63;;
52964;SDS011;42923;53.220;6.528;2022-11-15T02:20:09;18.45;;;9.60;;
52964;SDS011;42923;53.220;6.528;2022-11-15T02:27:04;15.90;;;10.07;;
52964;SDS011;42923;53.220;6.528;2022-11-15T02:32:45;19.50;;;11.02;;
52964;SDS011;42923;53.220;6.528;2022-11-15T02:35:57;20.77;;;10.75;;
52964;SDS011;42923;53.220;6.528;2022-11-15T02:38:54;22.25;;;12.13;;
52964;SDS011;42923;53.220;6.528;2022-11-15T02:42:02;15.50;;;9.75;;
52964;SDS011;42923;53.220;6.528;2022-11-15T02:45:12;17.38;;;10.77;;
52964;SDS011;42923;53.220;6.528;2022-11-15T02:48:01;18.55;;;11.27;;
52964;SDS011;42923;53.220;6.528;2022-11-15T02:50:48;16.17;;;10.98;;
52964;SDS011;42923;53.220;6.528;2022-11-15T02:53:32;20.17;;;11.32;;
52964;SDS011;42923;53.220;6.528;2022-11-15T02:56:17;17.10;;;9.98;;
52964;SDS011;42923;53.220;6.528;2022-11-15T03:05:12;19.70;;;11.88;;
52964;SDS011;42923;53.220;6.528;2022-11-15T03:08:22;21.52;;;11.60;;
52964;SDS011;42923;53.220;6.528;2022-11-15T03:11:21;20.92;;;12.35;;
52964;SDS011;42923;53.220;6.528;2022-11-15T03:17:16;18.55;;;11.73;;
52964;SDS011;42923;53.220;6.528;2022-11-15T03:20:22;24.38;;;13.02;;
52964;SDS011;42923;53.220;6.528;2022-11-15T03:23:10;27.10;;;11.80;;
52964;SDS011;42923;53.220;6.528;2022-11-15T03:25:55;23.67;;;12.48;;
52964;SDS011;42923;53.220;6.528;2022-11-15T03:28:44;23.95;;;12.48;;
52964;SDS011;42923;53.220;6.528;2022-11-15T03:31:39;22.00;;;12.67;;
52964;SDS011;42923;53.220;6.528;2022-11-15T03:34:44;21.02;;;10.65;;
52964;SDS011;42923;53.220;6.528;2022-11-15T03:37:35;21.52;;;11.18;;
52964;SDS011;42923;53.220;6.528;2022-11-15T03:43:29;26.65;;;12.88;;
52964;SDS011;42923;53.220;6.528;2022-11-15T03:46:38;23.05;;;12.25;;
52964;SDS011;42923;53.220;6.528;2022-11-15T03:49:33;19.30;;;10.70;;
52964;SDS011;42923;53.220;6.528;2022-11-15T03:52:20;28.55;;;11.10;;
52964;SDS011;42923;53.220;6.528;2022-11-15T03:55:06;24.10;;;11.18;;
52964;SDS011;42923;53.220;6.528;2022-11-15T03:57:55;20.35;;;11.10;;
52964;SDS011;42923;53.220;6.528;2022-11-15T04:00:43;25.23;;;12.48;;
52964;SDS011;42923;53.220;6.528;2022-11-15T04:03:27;24.45;;;12.35;;
52964;SDS011;42923;53.220;6.528;2022-11-15T04:06:11;25.48;;;12.48;;
52964;SDS011;42923;53.220;6.528;2022-11-15T04:08:56;23.55;;;12.63;;
52964;SDS011;42923;53.220;6.528;2022-11-15T04:11:40;21.30;;;11.20;;
52964;SDS011;42923;53.220;6.528;2022-11-15T04:14:24;24.75;;;13.00;;
52964;SDS011;42923;53.220;6.528;2022-11-15T04:17:08;23.38;;;10.80;;
52964;SDS011;42923;53.220;6.528;2022-11-15T04:19:52;20.92;;;11.05;;
52964;SDS011;42923;53.220;6.528;2022-11-15T04:22:56;24.90;;;12.55;;
52964;SDS011;42923;53.220;6.528;2022-11-15T04:26:01;23.27;;;12.43;;
52964;SDS011;42923;53.220;6.528;2022-11-15T04:28:47;24.20;;;12.27;;
52964;SDS011;42923;53.220;6.528;2022-11-15T04:31:51;22.38;;;12.00;;
52964;SDS011;42923;53.220;6.528;2022-11-15T04:34:34;23.42;;;11.70;;
52964;SDS011;42923;53.220;6.528;2022-11-15T04:37:19;23.90;;;12.00;;
52964;SDS011;42923;53.220;6.528;2022-11-15T04:40:04;23.90;;;12.60;;
52964;SDS011;42923;53.220;6.528;2022-11-15T04:42:48;27.25;;;12.02;;
52964;SDS011;42923;53.220;6.528;2022-11-15T04:45:32;24.33;;;12.07;;
52964;SDS011;42923;53.220;6.528;2022-11-15T04:48:16;25.83;;;13.07;;
52964;SDS011;42923;53.220;6.528;2022-11-15T04:51:00;23.67;;;11.95;;
52964;SDS011;42923;53.220;6.528;2022-11-15T04:53:44;27.25;;;12.50;;
52964;SDS011;42923;53.220;6.528;2022-11-15T04:56:29;25.48;;;11.65;;
52964;SDS011;42923;53.220;6.528;2022-11-15T04:59:13;25.20;;;12.57;;
52964;SDS011;42923;53.220;6.528;2022-11-15T05:01:57;25.52;;;13.52;;
52964;SDS011;42923;53.220;6.528;2022-11-15T05:04:41;12.23;;;6.40;;
52964;SDS011;42923;53.220;6.528;2022-11-15T05:07:26;33.42;;;13.88;;
52964;SDS011;42923;53.220;6.528;2022-11-15T05:10:10;29.33;;;13.73;;
52964;SDS011;42923;53.220;6.528;2022-11-15T05:12:54;26.98;;;13.20;;
52964;SDS011;42923;53.220;6.528;2022-11-15T05:15:39;32.65;;;14.60;;
52964;SDS011;42923;53.220;6.528;2022-11-15T05:18:23;31.45;;;14.70;;
52964;SDS011;42923;53.220;6.528;2022-11-15T05:21:08;26.75;;;13.40;;
52964;SDS011;42923;53.220;6.528;2022-11-15T05:23:54;30.88;;;14.05;;
52964;SDS011;42923;53.220;6.528;2022-11-15T05:26:38;36.80;;;14.13;;
52964;SDS011;42923;53.220;6.528;2022-11-15T05:29:23;26.83;;;12.30;;
52964;SDS011;42923;53.220;6.528;2022-11-15T05:32:07;24.55;;;13.88;;
52964;SDS011;42923;53.220;6.528;2022-11-15T05:34:52;32.22;;;14.65;;
52964;SDS011;42923;53.220;6.528;2022-11-15T05:37:37;33.60;;;13.90;;
52964;SDS011;42923;53.220;6.528;2022-11-15T05:40:22;27.90;;;13.20;;
52964;SDS011;42923;53.220;6.528;2022-11-15T05:43:07;31.88;;;14.70;;
52964;SDS011;42923;53.220;6.528;2022-11-15T05:45:52;33.55;;;15.52;;
52964;SDS011;42923;53.220;6.528;2022-11-15T05:48:37;34.45;;;14.45;;
52964;SDS011;42923;53.220;6.528;2022-11-15T05:51:24;40.20;;;17.23;;
52964;SDS011;42923;53.220;6.528;2022-11-15T05:54:12;36.42;;;16.60;;
52964;SDS011;42923;53.220;6.528;2022-11-15T05:56:57;35.28;;;16.52;;
52964;SDS011;42923;53.220;6.528;2022-11-15T05:59:42;32.00;;;14.85;;
52964;SDS011;42923;53.220;6.528;2022-11-15T06:02:26;44.70;;;15.30;;
52964;SDS011;42923;53.220;6.528;2022-11-15T06:05:11;38.08;;;17.50;;
52964;SDS011;42923;53.220;6.528;2022-11-15T06:07:58;26.88;;;13.90;;
52964;SDS011;42923;53.220;6.528;2022-11-15T06:10:42;39.42;;;16.30;;
52964;SDS011;42923;53.220;6.528;2022-11-15T06:13:26;33.70;;;16.25;;
52964;SDS011;42923;53.220;6.528;2022-11-15T06:16:10;39.60;;;17.13;;
52964;SDS011;42923;53.220;6.528;2022-11-15T06:18:55;37.35;;;16.60;;
52964;SDS011;42923;53.220;6.528;2022-11-15T06:21:39;38.15;;;16.27;;
52964;SDS011;42923;53.220;6.528;2022-11-15T06:24:23;41.60;;;16.20;;
52964;SDS011;42923;53.220;6.528;2022-11-15T06:27:07;34.88;;;15.75;;
52964;SDS011;42923;53.220;6.528;2022-11-15T06:29:52;43.67;;;17.45;;
52964;SDS011;42923;53.220;6.528;2022-11-15T06:32:36;37.55;;;16.67;;
52964;SDS011;42923;53.220;6.528;2022-11-15T06:35:20;41.03;;;16.33;;
52964;SDS011;42923;53.220;6.528;2022-11-15T06:38:06;37.42;;;16.23;;
52964;SDS011;42923;53.220;6.528;2022-11-15T06:40:51;32.47;;;15.35;;
52964;SDS011;42923;53.220;6.528;2022-11-15T06:43:36;38.17;;;16.20;;
52964;SDS011;42923;53.220;6.528;2022-11-15T06:46:21;36.85;;;16.48;;
52964;SDS011;42923;53.220;6.528;2022-11-15T06:49:05;45.53;;;18.20;;
52964;SDS011;42923;53.220;6.528;2022-11-15T06:51:49;36.58;;;15.82;;
52964;SDS011;42923;53.220;6.528;2022-11-15T06:54:33;37.70;;;17.23;;
52964;SDS011;42923;53.220;6.528;2022-11-15T06:57:18;34.35;;;15.48;;
52964;SDS011;42923;53.220;6.528;2022-11-15T07:00:05;46.15;;;17.42;;
52964;SDS011;42923;53.220;6.528;2022-11-15T07:02:50;35.20;;;15.95;;
52964;SDS011;42923;53.220;6.528;2022-11-15T07:05:34;41.97;;;18.52;;
52964;SDS011;42923;53.220;6.528;2022-11-15T07:08:19;38.33;;;14.32;;
52964;SDS011;42923;53.220;6.528;2022-11-15T07:11:05;32.65;;;15.27;;
52964;SDS011;42923;53.220;6.528;2022-11-15T07:13:51;27.38;;;15.07;;
52964;SDS011;42923;53.220;6.528;2022-11-15T07:16:35;31.88;;;13.90;;
52964;SDS011;42923;53.220;6.528;2022-11-15T07:19:20;33.05;;;16.75;;
52964;SDS011;42923;53.220;6.528;2022-11-15T07:22:04;27.08;;;14.10;;
52964;SDS011;42923;53.220;6.528;2022-11-15T07:24:48;29.95;;;13.88;;
52964;SDS011;42923;53.220;6.528;2022-11-15T07:27:33;41.20;;;16.52;;
52964;SDS011;42923;53.220;6.528;2022-11-15T07:30:17;31.13;;;16.08;;
52964;SDS011;42923;53.220;6.528;2022-11-15T07:33:01;36.67;;;15.73;;
52964;SDS011;42923;53.220;6.528;2022-11-15T07:35:45;36.20;;;15.85;;
52964;SDS011;42923;53.220;6.528;2022-11-15T07:38:33;24.35;;;13.93;;
52964;SDS011;42923;53.220;6.528;2022-11-15T07:41:18;26.80;;;14.10;;
52964;SDS011;42923;53.220;6.528;2022-11-15T07:44:02;31.27;;;14.70;;
52964;SDS011;42923;53.220;6.528;2022-11-15T07:46:46;27.52;;;14.57;;
52964;SDS011;42923;53.220;6.528;2022-11-15T07:49:31;33.45;;;13.82;;
52964;SDS011;42923;53.220;6.528;2022-11-15T07:52:15;28.42;;;14.95;;
52964;SDS011;42923;53.220;6.528;2022-11-15T07:55:00;29.42;;;14.23;;
52964;SDS011;42923;53.220;6.528;2022-11-15T07:57:44;26.73;;;13.38;;
52964;SDS011;42923;53.220;6.528;2022-11-15T08:00:28;25.50;;;15.02;;
52964;SDS011;42923;53.220;6.528;2022-11-15T08:03:14;29.63;;;14.52;;
52964;SDS011;42923;53.220;6.528;2022-11-15T08:05:59;27.70;;;14.52;;
52964;SDS011;42923;53.220;6.528;2022-11-15T08:08:44;25.65;;;14.15;;
52964;SDS011;42923;53.220;6.528;2022-11-15T08:11:30;26.05;;;14.07;;
52964;SDS011;42923;53.220;6.528;2022-11-15T08:14:14;23.55;;;11.05;;
52964;SDS011;42923;53.220;6.528;2022-11-15T08:16:58;22.80;;;12.07;;
52964;SDS011;42923;53.220;6.528;2022-11-15T08:19:43;25.00;;;13.38;;
52964;SDS011;42923;53.220;6.528;2022-11-15T08:22:27;23.15;;;12.45;;
52964;SDS011;42923;53.220;6.528;2022-11-15T08:25:11;22.05;;;12.45;;
52964;SDS011;42923;53.220;6.528;2022-11-15T08:27:55;25.98;;;13.52;;
52964;SDS011;42923;53.220;6.528;2022-11-15T08:30:41;25.92;;;13.23;;
52964;SDS011;42923;53.220;6.528;2022-11-15T08:33:26;25.50;;;12.20;;
52964;SDS011;42923;53.220;6.528;2022-11-15T08:36:15;19.25;;;11.50;;
52964;SDS011;42923;53.220;6.528;2022-11-15T08:39:00;25.33;;;12.27;;
52964;SDS011;42923;53.220;6.528;2022-11-15T08:41:45;21.45;;;12.32;;
52964;SDS011;42923;53.220;6.528;2022-11-15T08:44:29;26.30;;;14.27;;
52964;SDS011;42923;53.220;6.528;2022-11-15T08:47:13;23.77;;;12.48;;
52964;SDS011;42923;53.220;6.528;2022-11-15T08:49:58;26.10;;;11.30;;
52964;SDS011;42923;53.220;6.528;2022-11-15T08:52:42;20.63;;;11.55;;
52964;SDS011;42923;53.220;6.528;2022-11-15T08:55:26;20.02;;;11.10;;
52964;SDS011;42923;53.220;6.528;2022-11-15T08:58:10;25.88;;;12.43;;
52964;SDS011;42923;53.220;6.528;2022-11-15T09:00:54;24.73;;;13.60;;
52964;SDS011;42923;53.220;6.528;2022-11-15T09:03:39;17.85;;;11.10;;
52964;SDS011;42923;53.220;6.528;2022-11-15T09:06:24;19.05;;;11.95;;
52964;SDS011;42923;53.220;6.528;2022-11-15T09:09:08;19.40;;;11.32;;
52964;SDS011;42923;53.220;6.528;2022-11-15T09:11:52;19.20;;;11.38;;
52964;SDS011;42923;53.220;6.528;2022-11-15T09:14:36;21.27;;;11.48;;
52964;SDS011;42923;53.220;6.528;2022-11-15T09:17:20;18.08;;;11.25;;
52964;SDS011;42923;53.220;6.528;2022-11-15T09:20:05;15.50;;;10.38;;
52964;SDS011;42923;53.220;6.528;2022-11-15T09:22:49;16.63;;;10.10;;
52964;SDS011;42923;53.220;6.528;2022-11-15T09:25:34;16.17;;;8.73;;
52964;SDS011;42923;53.220;6.528;2022-11-15T09:28:18;20.70;;;10.38;;
52964;SDS011;42923;53.220;6.528;2022-11-15T09:31:03;18.77;;;10.00;;
52964;SDS011;42923;53.220;6.528;2022-11-15T09:33:49;15.18;;;10.00;;
52964;SDS011;42923;53.220;6.528;2022-11-15T09:36:33;16.52;;;10.15;;
52964;SDS011;42923;53.220;6.528;2022-11-15T09:39:17;15.25;;;8.65;;
52964;SDS011;42923;53.220;6.528;2022-11-15T09:50:55;12.50;;;8.93;;
52964;SDS011;42923;53.220;6.528;2022-11-15T09:56:20;14.77;;;9.32;;
52964;SDS011;42923;53.220;6.528;2022-11-15T10:02:30;15.02;;;8.13;;
52964;SDS011;42923;53.220;6.528;2022-11-15T10:04:37;12.60;;;8.43;;
52964;SDS011;42923;53.220;6.528;2022-11-15T10:09:38;19.80;;;9.45;;
52964;SDS011;42923;53.220;6.528;2022-11-15T10:12:14;17.42;;;9.25;;
52964;SDS011;42923;53.220;6.528;2022-11-15T10:14:41;12.48;;;8.82;;
52964;SDS011;42923;53.220;6.528;2022-11-15T10:18:09;12.20;;;7.85;;
52964;SDS011;42923;53.220;6.528;2022-11-15T10:20:27;15.35;;;6.57;;
52964;SDS011;42923;53.220;6.528;2022-11-15T10:23:01;14.68;;;7.30;;
52964;SDS011;42923;53.220;6.528;2022-11-15T10:25:34;14.52;;;8.55;;
52964;SDS011;42923;53.220;6.528;2022-11-15T10:28:05;17.02;;;8.65;;
52964;SDS011;42923;53.220;6.528;2022-11-15T10:30:45;13.80;;;8.02;;
52964;SDS011;42923;53.220;6.528;2022-11-15T10:41:14;14.07;;;8.52;;
52964;SDS011;42923;53.220;6.528;2022-11-15T10:43:41;13.68;;;9.27;;
52964;SDS011;42923;53.220;6.528;2022-11-15T10:46:16;13.52;;;7.95;;
52964;SDS011;42923;53.220;6.528;2022-11-15T10:48:45;11.93;;;7.65;;
52964;SDS011;42923;53.220;6.528;2022-11-15T10:51:22;16.30;;;8.13;;
52964;SDS011;42923;53.220;6.528;2022-11-15T10:53:54;12.70;;;7.30;;
52964;SDS011;42923;53.220;6.528;2022-11-15T10:56:22;12.52;;;7.65;;
52964;SDS011;42923;53.220;6.528;2022-11-15T10:58:52;11.32;;;7.43;;
52964;SDS011;42923;53.220;6.528;2022-11-15T11:01:24;16.00;;;7.65;;
52964;SDS011;42923;53.220;6.528;2022-11-15T11:06:28;11.25;;;7.65;;
52964;SDS011;42923;53.220;6.528;2022-11-15T11:11:21;14.32;;;8.35;;
52964;SDS011;42923;53.220;6.528;2022-11-15T11:13:47;12.25;;;7.93;;
52964;SDS011;42923;53.220;6.528;2022-11-15T11:21:18;11.35;;;8.07;;
52964;SDS011;42923;53.220;6.528;2022-11-15T11:24:11;14.05;;;8.05;;
52964;SDS011;42923;53.220;6.528;2022-11-15T11:37:57;17.73;;;8.30;;
52964;SDS011;42923;53.220;6.528;2022-11-15T11:40:35;17.30;;;7.25;;
52964;SDS011;42923;53.220;6.528;2022-11-15T11:43:14;14.27;;;7.07;;
52964;SDS011;42923;53.220;6.528;2022-11-15T11:46:08;10.27;;;7.35;;
52964;SDS011;42923;53.220;6.528;2022-11-15T11:48:57;13.38;;;6.95;;
52964;SDS011;42923;53.220;6.528;2022-11-15T11:51:27;12.32;;;7.57;;
52964;SDS011;42923;53.220;6.528;2022-11-15T11:56:34;12.38;;;6.88;;
52964;SDS011;42923;53.220;6.528;2022-11-15T11:59:10;10.68;;;6.97;;
52964;SDS011;42923;53.220;6.528;2022-11-15T12:01:45;8.75;;;5.93;;
52964;SDS011;42923;53.220;6.528;2022-11-15T12:07:07;9.02;;;6.25;;
52964;SDS011;42923;53.220;6.528;2022-11-15T12:09:48;10.27;;;6.43;;
52964;SDS011;42923;53.220;6.528;2022-11-15T12:12:27;6.60;;;5.45;;
52964;SDS011;42923;53.220;6.528;2022-11-15T12:15:02;9.43;;;5.18;;
52964;SDS011;42923;53.220;6.528;2022-11-15T12:17:34;9.18;;;4.00;;
52964;SDS011;42923;53.220;6.528;2022-11-15T12:20:05;4.68;;;3.75;;
52964;SDS011;42923;53.220;6.528;2022-11-15T12:22:49;3.47;;;2.60;;
52964;SDS011;42923;53.220;6.528;2022-11-15T12:28:15;7.03;;;2.75;;
52964;SDS011;42923;53.220;6.528;2022-11-15T12:30:56;4.70;;;2.72;;
52964;SDS011;42923;53.220;6.528;2022-11-15T12:36:02;4.85;;;2.38;;
52964;SDS011;42923;53.220;6.528;2022-11-15T12:41:28;2.20;;;1.35;;
52964;SDS011;42923;53.220;6.528;2022-11-15T12:43:54;4.72;;;2.20;;
52964;SDS011;42923;53.220;6.528;2022-11-15T12:49:09;4.50;;;1.70;;
52964;SDS011;42923;53.220;6.528;2022-11-15T13:02:20;2.45;;;1.20;;
52964;SDS011;42923;53.220;6.528;2022-11-15T13:04:47;3.50;;;1.45;;
52964;SDS011;42923;53.220;6.528;2022-11-15T13:12:54;3.60;;;1.42;;
52964;SDS011;42923;53.220;6.528;2022-11-15T13:21:05;4.00;;;1.88;;
52964;SDS011;42923;53.220;6.528;2022-11-15T13:24:03;4.75;;;3.00;;
52964;SDS011;42923;53.220;6.528;2022-11-15T13:26:29;4.20;;;2.58;;
52964;SDS011;42923;53.220;6.528;2022-11-15T13:28:56;6.15;;;2.53;;
52964;SDS011;42923;53.220;6.528;2022-11-15T13:31:27;6.70;;;2.30;;
52964;SDS011;42923;53.220;6.528;2022-11-15T13:34:29;3.78;;;2.10;;
52964;SDS011;42923;53.220;6.528;2022-11-15T13:36:55;7.30;;;2.50;;
52964;SDS011;42923;53.220;6.528;2022-11-15T13:39:31;6.75;;;2.20;;
52964;SDS011;42923;53.220;6.528;2022-11-15T13:41:59;6.57;;;2.35;;
52964;SDS011;42923;53.220;6.528;2022-11-15T13:44:32;9.88;;;3.35;;
52964;SDS011;42923;53.220;6.528;2022-11-15T13:47:05;4.78;;;2.67;;
52964;SDS011;42923;53.220;6.528;2022-11-15T13:49:45;6.93;;;2.20;;
52964;SDS011;42923;53.220;6.528;2022-11-15T13:52:12;5.38;;;2.42;;
52964;SDS011;42923;53.220;6.528;2022-11-15T13:54:51;4.05;;;2.17;;
52964;SDS011;42923;53.220;6.528;2022-11-15T13:57:39;3.42;;;2.00;;
52964;SDS011;42923;53.220;6.528;2022-11-15T14:00:19;4.32;;;2.45;;
52964;SDS011;42923;53.220;6.528;2022-11-15T14:02:47;6.60;;;2.10;;
52964;SDS011;42923;53.220;6.528;2022-11-15T14:05:20;4.57;;;2.78;;
52964;SDS011;42923;53.220;6.528;2022-11-15T14:07:55;4.07;;;2.55;;
52964;SDS011;42923;53.220;6.528;2022-11-15T14:12:59;4.47;;;1.92;;
52964;SDS011;42923;53.220;6.528;2022-11-15T14:15:38;3.00;;;1.80;;
52964;SDS011;42923;53.220;6.528;2022-11-15T14:18:05;5.10;;;2.22;;
52964;SDS011;42923;53.220;6.528;2022-11-15T14:20:35;3.08;;;1.95;;
52964;SDS011;42923;53.220;6.528;2022-11-15T14:23:04;6.50;;;2.08;;
52964;SDS011;42923;53.220;6.528;2022-11-15T14:25:57;3.47;;;1.70;;
52964;SDS011;42923;53.220;6.528;2022-11-15T14:30:53;5.40;;;1.40;;
52964;SDS011;42923;53.220;6.528;2022-11-15T14:33:28;3.72;;;1.92;;
52964;SDS011;42923;53.220;6.528;2022-11-15T14:36:03;3.58;;;1.60;;
52964;SDS011;42923;53.220;6.528;2022-11-15T14:38:30;2.78;;;1.70;;
52964;SDS011;42923;53.220;6.528;2022-11-15T14:40:56;3.83;;;1.60;;
52964;SDS011;42923;53.220;6.528;2022-11-15T14:43:22;2.85;;;1.73;;
52964;SDS011;42923;53.220;6.528;2022-11-15T14:45:48;2.92;;;1.58;;
52964;SDS011;42923;53.220;6.528;2022-11-15T14:48:14;3.65;;;2.10;;
52964;SDS011;42923;53.220;6.528;2022-11-15T14:50:39;4.95;;;1.85;;
52964;SDS011;42923;53.220;6.528;2022-11-15T14:53:05;4.20;;;2.55;;
52964;SDS011;42923;53.220;6.528;2022-11-15T14:55:32;2.50;;;1.50;;
52964;SDS011;42923;53.220;6.528;2022-11-15T14:58:04;3.08;;;1.70;;
52964;SDS011;42923;53.220;6.528;2022-11-15T15:00:33;3.90;;;1.35;;
52964;SDS011;42923;53.220;6.528;2022-11-15T15:03:04;3.05;;;1.40;;
52964;SDS011;42923;53.220;6.528;2022-11-15T15:05:32;3.42;;;1.48;;
52964;SDS011;42923;53.220;6.528;2022-11-15T15:08:08;3.72;;;1.73;;
52964;SDS011;42923;53.220;6.528;2022-11-15T15:10:36;3.38;;;1.60;;
52964;SDS011;42923;53.220;6.528;2022-11-15T15:13:03;2.50;;;1.30;;
52964;SDS011;42923;53.220;6.528;2022-11-15T15:15:31;4.13;;;1.45;;
52964;SDS011;42923;53.220;6.528;2022-11-15T15:17:59;2.72;;;1.30;;
52964;SDS011;42923;53.220;6.528;2022-11-15T15:20:24;4.18;;;1.45;;
52964;SDS011;42923;53.220;6.528;2022-11-15T15:22:50;3.28;;;1.42;;
52964;SDS011;42923;53.220;6.528;2022-11-15T15:25:20;7.10;;;2.17;;
52964;SDS011;42923;53.220;6.528;2022-11-15T15:27:46;3.28;;;1.60;;
52964;SDS011;42923;53.220;6.528;2022-11-15T15:30:12;2.25;;;1.55;;
52964;SDS011;42923;53.220;6.528;2022-11-15T15:32:38;2.53;;;1.48;;
52964;SDS011;42923;53.220;6.528;2022-11-15T15:35:04;6.13;;;1.88;;
52964;SDS011;42923;53.220;6.528;2022-11-15T15:37:30;5.70;;;1.52;;
52964;SDS011;42923;53.220;6.528;2022-11-15T15:39:58;5.03;;;1.90;;
52964;SDS011;42923;53.220;6.528;2022-11-15T15:42:24;2.40;;;1.55;;
52964;SDS011;42923;53.220;6.528;2022-11-15T15:44:50;2.53;;;1.90;;
52964;SDS011;42923;53.220;6.528;2022-11-15T15:47:17;6.90;;;2.08;;
52964;SDS011;42923;53.220;6.528;2022-11-15T15:49:48;5.70;;;2.25;;
52964;SDS011;42923;53.220;6.528;2022-11-15T15:52:14;3.80;;;2.33;;
52964;SDS011;42923;53.220;6.528;2022-11-15T15:54:40;2.95;;;1.98;;
52964;SDS011;42923;53.220;6.528;2022-11-15T15:57:07;3.40;;;2.40;;
52964;SDS011;42923;53.220;6.528;2022-11-15T15:59:33;4.25;;;2.40;;
52964;SDS011;42923;53.220;6.528;2022-11-15T16:01:59;6.00;;;2.75;;
52964;SDS011;42923;53.220;6.528;2022-11-15T16:04:25;4.88;;;2.10;;
52964;SDS011;42923;53.220;6.528;2022-11-15T16:06:51;4.25;;;2.42;;
52964;SDS011;42923;53.220;6.528;2022-11-15T16:09:20;6.47;;;2.55;;
52964;SDS011;42923;53.220;6.528;2022-11-15T16:12:05;4.30;;;2.88;;
52964;SDS011;42923;53.220;6.528;2022-11-15T16:14:31;5.55;;;2.50;;
52964;SDS011;42923;53.220;6.528;2022-11-15T16:16:57;3.70;;;2.60;;
52964;SDS011;42923;53.220;6.528;2022-11-15T16:19:23;3.53;;;2.95;;
52964;SDS011;42923;53.220;6.528;2022-11-15T16:21:48;6.82;;;2.95;;
52964;SDS011;42923;53.220;6.528;2022-11-15T16:24:14;5.40;;;3.20;;
52964;SDS011;42923;53.220;6.528;2022-11-15T16:26:40;4.13;;;2.60;;
52964;SDS011;42923;53.220;6.528;2022-11-15T16:29:07;6.90;;;2.60;;
52964;SDS011;42923;53.220;6.528;2022-11-15T16:31:34;3.20;;;2.63;;
52964;SDS011;42923;53.220;6.528;2022-11-15T16:34:00;3.67;;;2.50;;
52964;SDS011;42923;53.220;6.528;2022-11-15T16:36:26;3.35;;;2.53;;
52964;SDS011;42923;53.220;6.528;2022-11-15T16:38:53;3.90;;;2.22;;
52964;SDS011;42923;53.220;6.528;2022-11-15T16:41:19;3.45;;;2.65;;
52964;SDS011;42923;53.220;6.528;2022-11-15T16:43:45;4.70;;;2.75;;
52964;SDS011;42923;53.220;6.528;2022-11-15T16:46:16;3.17;;;2.17;;
52964;SDS011;42923;53.220;6.528;2022-11-15T16:48:44;4.00;;;3.05;;
52964;SDS011;42923;53.220;6.528;2022-11-15T16:51:10;4.93;;;3.33;;
52964;SDS011;42923;53.220;6.528;2022-11-15T16:53:36;5.32;;;2.70;;
52964;SDS011;42923;53.220;6.528;2022-11-15T16:56:02;5.00;;;3.20;;
52964;SDS011;42923;53.220;6.528;2022-11-15T16:58:27;3.55;;;2.63;;
52964;SDS011;42923;53.220;6.528;2022-11-15T17:00:54;5.82;;;2.60;;
52964;SDS011;42923;53.220;6.528;2022-11-15T17:03:21;3.55;;;3.03;;
52964;SDS011;42923;53.220;6.528;2022-11-15T17:05:48;3.17;;;2.75;;
52964;SDS011;42923;53.220;6.528;2022-11-15T17:08:14;4.22;;;2.92;;
52964;SDS011;42923;53.220;6.528;2022-11-15T17:10:40;5.03;;;2.42;;
52964;SDS011;42923;53.220;6.528;2022-11-15T17:13:07;4.00;;;2.20;;
52964;SDS011;42923;53.220;6.528;2022-11-15T17:15:37;3.42;;;2.55;;
52964;SDS011;42923;53.220;6.528;2022-11-15T17:18:03;5.82;;;2.50;;
52964;SDS011;42923;53.220;6.528;2022-11-15T17:20:30;6.25;;;2.80;;
52964;SDS011;42923;53.220;6.528;2022-11-15T17:22:56;3.63;;;2.05;;
52964;SDS011;42923;53.220;6.528;2022-11-15T17:25:22;2.83;;;1.95;;
52964;SDS011;42923;53.220;6.528;2022-11-15T17:27:48;3.45;;;2.50;;
52964;SDS011;42923;53.220;6.528;2022-11-15T17:30:14;3.08;;;2.15;;
52964;SDS011;42923;53.220;6.528;2022-11-15T17:32:40;2.30;;;1.88;;
52964;SDS011;42923;53.220;6.528;2022-11-15T17:35:07;3.78;;;1.83;;
52964;SDS011;42923;53.220;6.528;2022-11-15T17:37:34;3.55;;;1.85;;